Time;durP1;ratioP1;P1;durP2;ratioP2;P2;SDS_P1;SDS_P2;PMS_P1;PMS_P2;Temp;Humidity;BMP_temperature;BMP_pressure;BME280_temperature;BME280_humidity;BME280_pressure;Samples;Min_cycle;Max_cycle;Signal;HPM_P1;HPM_P2
2022/04/15 00:01:37;;;;;;;29.50;15.65;;;10.30;99.90;;;;;;5030231;28;20068;-67
2022/04/15 00:04:03;;;;;;;24.23;15.38;;;10.30;99.90;;;;;;5030492;28;20056;-66
2022/04/15 00:06:29;;;;;;;27.23;15.00;;;10.30;99.90;;;;;;5032082;28;20033;-66
2022/04/15 00:08:55;;;;;;;29.73;15.38;;;10.30;99.90;;;;;;5033093;28;20030;-66
2022/04/15 00:11:21;;;;;;;30.38;15.50;;;10.20;99.90;;;;;;5033209;28;20029;-66
2022/04/15 00:13:47;;;;;;;24.55;14.93;;;10.20;99.90;;;;;;5033406;28;20425;-66
2022/04/15 00:16:14;;;;;;;28.55;16.42;;;10.20;99.90;;;;;;5025156;28;20104;-67
2022/04/15 00:18:40;;;;;;;28.25;16.02;;;10.10;99.90;;;;;;5013145;28;20045;-66
2022/04/15 00:21:06;;;;;;;32.55;16.13;;;10.10;99.90;;;;;;5013247;28;20026;-66
2022/04/15 00:23:31;;;;;;;28.10;17.27;;;10.10;99.90;;;;;;5031442;28;20499;-64
2022/04/15 00:25:58;;;;;;;30.17;17.15;;;10.10;99.90;;;;;;5029685;28;20036;-67
2022/04/15 00:28:24;;;;;;;30.70;17.20;;;10.10;99.90;;;;;;5030190;28;20036;-66
2022/04/15 00:30:50;;;;;;;35.22;18.33;;;10.10;99.90;;;;;;5033172;28;20018;-67
2022/04/15 00:33:15;;;;;;;35.10;17.63;;;10.10;99.90;;;;;;5032747;28;20448;-67
2022/04/15 00:35:41;;;;;;;35.08;18.48;;;10.00;99.90;;;;;;5033003;28;20029;-67
2022/04/15 00:38:07;;;;;;;34.53;18.05;;;9.90;99.90;;;;;;5032556;28;20051;-67
2022/04/15 00:40:33;;;;;;;34.95;18.92;;;9.90;99.90;;;;;;5032635;28;20029;-67
2022/04/15 00:42:59;;;;;;;33.10;17.10;;;9.90;99.90;;;;;;5032789;28;20025;-66
2022/04/15 00:45:25;;;;;;;32.47;18.00;;;9.90;99.90;;;;;;5032515;28;20056;-66
2022/04/15 00:47:53;;;;;;;33.60;18.27;;;9.90;99.90;;;;;;5032523;28;20029;-66
2022/04/15 00:50:23;;;;;;;33.33;19.50;;;9.90;99.90;;;;;;5029109;28;20053;-67
2022/04/15 00:52:51;;;;;;;37.80;20.80;;;9.90;99.90;;;;;;5026713;28;20092;-65
2022/04/15 00:55:18;;;;;;;30.90;17.85;;;9.80;99.90;;;;;;5032541;28;20036;-65
2022/04/15 00:57:49;;;;;;;38.67;20.15;;;9.90;99.90;;;;;;5032377;28;20022;-65
2022/04/15 01:00:15;;;;;;;38.45;20.25;;;9.80;99.90;;;;;;5032551;28;20084;-66
2022/04/15 01:02:43;;;;;;;40.38;20.70;;;9.80;99.90;;;;;;5029344;28;20021;-65
2022/04/15 01:05:10;;;;;;;42.33;21.00;;;9.70;99.90;;;;;;5029063;28;20041;-65
2022/04/15 01:07:40;;;;;;;38.65;20.25;;;9.70;99.90;;;;;;5030851;28;20022;-66
2022/04/15 01:10:09;;;;;;;39.55;21.45;;;9.70;99.90;;;;;;5032343;28;20105;-65
2022/04/15 01:12:43;;;;;;;39.53;21.80;;;9.60;99.90;;;;;;5032077;28;20087;-65
2022/04/15 01:15:13;;;;;;;39.40;21.90;;;9.70;99.90;;;;;;5032548;28;20072;-66
2022/04/15 01:17:39;;;;;;;42.40;22.23;;;9.70;99.90;;;;;;5032301;28;20105;-65
2022/04/15 01:20:10;;;;;;;41.47;23.13;;;9.60;99.90;;;;;;5031892;28;20069;-65
2022/04/15 01:22:44;;;;;;;39.47;20.77;;;9.60;99.90;;;;;;5031667;28;20244;-65
2022/04/15 01:25:18;;;;;;;39.35;21.35;;;9.60;99.90;;;;;;5031936;28;20029;-64
2022/04/15 01:27:48;;;;;;;38.85;20.77;;;9.50;99.90;;;;;;5031763;28;20519;-64
2022/04/15 01:30:19;;;;;;;39.53;20.23;;;9.60;99.90;;;;;;5032023;28;20025;-64
2022/04/15 01:32:46;;;;;;;41.85;20.85;;;9.60;99.90;;;;;;5031720;28;20026;-64
2022/04/15 01:35:15;;;;;;;34.95;19.40;;;9.60;99.90;;;;;;5024589;28;20018;-66
2022/04/15 01:37:42;;;;;;;36.20;18.88;;;9.60;99.90;;;;;;5011682;28;20366;-64
2022/04/15 01:40:09;;;;;;;35.33;18.05;;;9.60;99.90;;;;;;5012002;28;20042;-64
2022/04/15 01:42:37;;;;;;;31.98;15.93;;;9.50;99.90;;;;;;5011720;28;20100;-64
2022/04/15 01:45:04;;;;;;;28.52;15.77;;;9.50;99.90;;;;;;5011768;28;20115;-66
2022/04/15 01:47:29;;;;;;;28.85;16.17;;;9.60;99.90;;;;;;5011401;28;20492;-64
2022/04/15 01:49:55;;;;;;;31.52;16.55;;;9.60;99.90;;;;;;5008329;28;20026;-64
2022/04/15 01:52:21;;;;;;;30.05;16.40;;;9.50;99.90;;;;;;5018475;28;20040;-64
2022/04/15 01:54:47;;;;;;;32.95;17.67;;;9.50;99.90;;;;;;5027856;28;20030;-64
2022/04/15 01:57:13;;;;;;;32.47;19.13;;;9.40;99.90;;;;;;5028237;28;20049;-65
2022/04/15 01:59:39;;;;;;;36.70;19.67;;;9.30;99.90;;;;;;5028260;28;20033;-64
2022/04/15 02:02:06;;;;;;;35.47;18.38;;;9.30;99.90;;;;;;5028384;28;20373;-67
2022/04/15 02:04:32;;;;;;;34.25;18.17;;;9.30;99.90;;;;;;5029377;28;20021;-64
2022/04/15 02:06:58;;;;;;;36.03;17.90;;;9.30;99.90;;;;;;5030999;28;20361;-64
2022/04/15 02:09:24;;;;;;;36.95;19.00;;;9.20;99.90;;;;;;5030855;28;20067;-66
2022/04/15 02:11:49;;;;;;;36.08;19.45;;;9.30;99.90;;;;;;5030783;28;20029;-66
2022/04/15 02:14:19;;;;;;;39.70;18.73;;;9.30;99.90;;;;;;5030335;28;20072;-67
2022/04/15 02:16:48;;;;;;;36.42;19.13;;;9.20;99.90;;;;;;5031192;28;20060;-64
2022/04/15 02:19:14;;;;;;;33.33;17.35;;;9.20;99.90;;;;;;5030807;28;20060;-65
2022/04/15 02:21:40;;;;;;;34.65;17.27;;;9.10;99.90;;;;;;5030684;28;20524;-64
2022/04/15 02:24:06;;;;;;;35.88;17.90;;;9.20;99.90;;;;;;5030354;28;20064;-64
2022/04/15 02:26:32;;;;;;;37.13;18.20;;;9.10;99.90;;;;;;5030630;28;20512;-64
2022/04/15 02:28:58;;;;;;;37.65;17.88;;;9.10;99.90;;;;;;5030734;28;20040;-64
2022/04/15 02:31:24;;;;;;;39.15;19.20;;;9.10;99.90;;;;;;5030698;28;20021;-64
2022/04/15 02:33:49;;;;;;;33.45;16.45;;;9.10;99.90;;;;;;5030870;28;20025;-64
2022/04/15 02:36:16;;;;;;;31.42;15.88;;;9.10;99.90;;;;;;5030592;28;20413;-64
2022/04/15 02:38:42;;;;;;;36.85;17.33;;;9.10;99.90;;;;;;5030260;28;20441;-65
2022/04/15 02:41:08;;;;;;;33.88;16.60;;;9.20;99.90;;;;;;5030263;28;20083;-64
2022/04/15 02:43:37;;;;;;;33.65;15.38;;;9.20;99.90;;;;;;5030449;28;20037;-64
2022/04/15 02:46:05;;;;;;;24.50;11.63;;;9.20;99.90;;;;;;5027123;28;20310;-65
2022/04/15 02:48:31;;;;;;;14.40;7.38;;;9.10;99.90;;;;;;5026217;28;20030;-65
2022/04/15 02:50:57;;;;;;;9.88;5.45;;;8.90;99.90;;;;;;5025200;28;20082;-65
2022/04/15 02:53:23;;;;;;;8.88;4.82;;;8.60;99.90;;;;;;5008562;28;20030;-65
2022/04/15 02:55:49;;;;;;;9.73;5.43;;;8.40;99.90;;;;;;5007687;28;20032;-65
2022/04/15 02:58:15;;;;;;;7.57;5.05;;;8.20;99.90;;;;;;5007306;28;20041;-65
2022/04/15 03:00:41;;;;;;;10.05;5.72;;;8.00;99.90;;;;;;5007295;28;20042;-65
2022/04/15 03:03:06;;;;;;;10.65;6.25;;;7.90;99.90;;;;;;5007288;28;20037;-65
2022/04/15 03:05:32;;;;;;;12.88;7.15;;;7.80;99.90;;;;;;5007544;28;20022;-65
2022/04/15 03:07:58;;;;;;;10.25;6.35;;;7.70;99.90;;;;;;5007088;28;20030;-65
2022/04/15 03:10:24;;;;;;;13.25;6.82;;;7.70;99.90;;;;;;5007190;28;20061;-65
2022/04/15 03:12:49;;;;;;;11.98;7.25;;;7.60;99.90;;;;;;5007150;28;20030;-65
2022/04/15 03:15:16;;;;;;;16.50;7.32;;;7.70;99.90;;;;;;5007184;28;20029;-65
2022/04/15 03:17:41;;;;;;;16.35;8.73;;;7.60;99.90;;;;;;5006940;28;20038;-65
2022/04/15 03:20:09;;;;;;;12.55;7.38;;;7.60;99.90;;;;;;5007149;28;20048;-65
2022/04/15 03:22:39;;;;;;;12.20;7.07;;;7.60;99.90;;;;;;5008974;28;20061;-65
2022/04/15 03:25:06;;;;;;;11.70;6.03;;;7.50;99.90;;;;;;5010075;28;20037;-65
2022/04/15 03:27:32;;;;;;;13.55;6.30;;;7.50;99.90;;;;;;5009812;28;20278;-65
2022/04/15 03:29:58;;;;;;;8.73;5.95;;;7.50;99.90;;;;;;5010262;28;20021;-65
2022/04/15 03:32:24;;;;;;;11.05;6.97;;;7.40;99.90;;;;;;5009937;28;20025;-65
2022/04/15 03:34:55;;;;;;;16.55;7.80;;;7.40;99.90;;;;;;5009881;28;20030;-65
2022/04/15 03:37:21;;;;;;;16.55;8.80;;;7.40;99.90;;;;;;5008747;28;20034;-65
2022/04/15 03:39:46;;;;;;;17.08;8.57;;;7.40;99.90;;;;;;5009782;28;20044;-65
2022/04/15 03:42:12;;;;;;;18.42;9.18;;;7.40;99.90;;;;;;5009980;28;20040;-65
2022/04/15 03:44:37;;;;;;;17.73;9.05;;;7.40;99.90;;;;;;5012504;28;20469;-65
2022/04/15 03:47:04;;;;;;;15.65;9.25;;;7.40;99.90;;;;;;5009996;28;20030;-65
2022/04/15 03:49:30;;;;;;;19.02;9.90;;;7.40;99.90;;;;;;5009975;28;20033;-65
2022/04/15 03:51:56;;;;;;;14.45;8.15;;;7.40;99.90;;;;;;5012040;28;20030;-65
2022/04/15 03:54:21;;;;;;;16.42;8.13;;;7.50;99.90;;;;;;5026600;28;20029;-65
2022/04/15 03:56:47;;;;;;;16.55;9.57;;;7.50;99.90;;;;;;5009715;28;20373;-65
2022/04/15 03:59:13;;;;;;;16.05;7.70;;;7.50;99.90;;;;;;5009907;28;20392;-65
2022/04/15 04:01:39;;;;;;;14.18;8.30;;;7.50;99.90;;;;;;5008362;28;20029;-65
2022/04/15 04:04:05;;;;;;;18.50;9.88;;;7.40;99.90;;;;;;5009799;28;20117;-65
2022/04/15 04:06:31;;;;;;;18.33;8.40;;;7.40;99.90;;;;;;5009829;28;20053;-65
2022/04/15 04:08:56;;;;;;;15.70;8.52;;;7.50;99.90;;;;;;5009731;28;20034;-65
2022/04/15 04:11:22;;;;;;;17.58;8.60;;;7.40;99.90;;;;;;5024795;28;20040;-65
2022/04/15 04:13:47;;;;;;;16.48;8.70;;;7.40;99.90;;;;;;5009591;28;20396;-64
2022/04/15 04:16:13;;;;;;;18.30;8.52;;;7.40;99.90;;;;;;5007742;28;20065;-65
2022/04/15 04:18:40;;;;;;;14.18;7.93;;;7.40;99.90;;;;;;5006630;28;20061;-65
2022/04/15 04:21:06;;;;;;;17.73;8.32;;;7.40;99.90;;;;;;5007454;28;20033;-65
2022/04/15 04:23:31;;;;;;;20.17;9.13;;;7.40;99.90;;;;;;5028912;28;20457;-65
2022/04/15 04:25:57;;;;;;;16.42;8.82;;;7.40;99.90;;;;;;5029193;28;20030;-65
2022/04/15 04:28:22;;;;;;;13.43;7.10;;;7.40;99.90;;;;;;5029643;28;20053;-65
2022/04/15 04:30:48;;;;;;;12.88;7.00;;;7.30;99.90;;;;;;5028564;28;20030;-64
2022/04/15 04:33:14;;;;;;;17.98;8.15;;;7.30;99.90;;;;;;5026078;28;20488;-65
2022/04/15 04:35:39;;;;;;;18.15;9.15;;;7.30;99.90;;;;;;5025762;28;20183;-64
2022/04/15 04:38:06;;;;;;;16.27;8.68;;;7.30;99.90;;;;;;5028642;28;20100;-65
2022/04/15 04:40:35;;;;;;;14.77;7.10;;;7.40;99.90;;;;;;5029829;28;20021;-64
2022/04/15 04:43:02;;;;;;;11.85;6.05;;;7.40;99.90;;;;;;5032617;28;20140;-64
2022/04/15 04:45:29;;;;;;;13.70;6.65;;;7.30;99.90;;;;;;5032665;28;20496;-64
2022/04/15 04:47:56;;;;;;;11.80;6.45;;;7.10;99.90;;;;;;5032708;28;20104;-64
2022/04/15 04:50:22;;;;;;;14.63;6.72;;;7.00;99.90;;;;;;5032565;28;20033;-64
2022/04/15 04:52:48;;;;;;;10.45;6.05;;;6.90;99.90;;;;;;5018414;28;20042;-64
2022/04/15 04:55:14;;;;;;;8.80;5.70;;;6.80;99.90;;;;;;5012836;28;20030;-64
2022/04/15 04:57:42;;;;;;;9.77;5.68;;;6.80;99.90;;;;;;5012075;28;20137;-64
2022/04/15 05:00:10;;;;;;;8.82;5.57;;;6.80;99.90;;;;;;5011267;28;20038;-64
2022/04/15 05:02:36;;;;;;;11.80;6.32;;;6.80;99.90;;;;;;5008463;28;20017;-64
2022/04/15 05:05:02;;;;;;;10.23;6.05;;;6.80;99.90;;;;;;5009404;28;20037;-65
2022/04/15 05:07:27;;;;;;;8.02;5.55;;;6.80;99.90;;;;;;5010992;28;20034;-65
2022/04/15 05:09:53;;;;;;;11.35;5.70;;;6.70;99.90;;;;;;5012465;28;20109;-65
2022/04/15 05:12:19;;;;;;;11.45;6.43;;;6.70;99.90;;;;;;5009847;28;20053;-65
2022/04/15 05:14:44;;;;;;;13.00;7.15;;;6.80;99.90;;;;;;5009251;28;20469;-65
2022/04/15 05:17:10;;;;;;;16.90;8.15;;;6.90;99.90;;;;;;5011225;28;20033;-65
2022/04/15 05:19:36;;;;;;;13.23;7.35;;;6.90;99.90;;;;;;5012091;28;20030;-64
2022/04/15 05:22:02;;;;;;;11.05;6.40;;;6.90;99.90;;;;;;5012280;28;20046;-65
2022/04/15 05:24:28;;;;;;;10.38;6.57;;;7.00;99.90;;;;;;5011915;28;20050;-65
2022/04/15 05:26:54;;;;;;;12.70;6.93;;;6.90;99.90;;;;;;5012125;28;20053;-65
2022/04/15 05:29:19;;;;;;;9.75;5.95;;;7.00;99.90;;;;;;5011787;28;20022;-65
2022/04/15 05:31:45;;;;;;;11.70;6.50;;;7.00;99.90;;;;;;5011974;28;20029;-65
2022/04/15 05:34:10;;;;;;;10.00;6.30;;;7.00;99.90;;;;;;5011991;28;20107;-64
2022/04/15 05:36:36;;;;;;;10.73;5.97;;;7.00;99.90;;;;;;5010652;28;20018;-64
2022/04/15 05:39:02;;;;;;;16.08;6.82;;;7.00;99.90;;;;;;5008599;28;20507;-64
2022/04/15 05:41:28;;;;;;;15.55;8.10;;;7.00;99.90;;;;;;5008883;28;20728;-64
2022/04/15 05:43:54;;;;;;;16.63;8.02;;;7.10;99.90;;;;;;5007657;28;20515;-64
2022/04/15 05:46:20;;;;;;;16.55;8.82;;;7.10;99.90;;;;;;5009762;28;20022;-64
2022/04/15 05:48:46;;;;;;;15.05;7.38;;;7.20;99.90;;;;;;5011549;28;20060;-64
2022/04/15 05:51:12;;;;;;;19.38;7.38;;;7.30;99.90;;;;;;5013898;28;20022;-64
2022/04/15 05:53:37;;;;;;;12.07;6.47;;;7.30;99.90;;;;;;5011359;28;20025;-64
2022/04/15 05:56:03;;;;;;;11.32;5.72;;;7.40;99.90;;;;;;5011573;28;20034;-64
2022/04/15 05:58:29;;;;;;;10.65;5.53;;;7.40;99.90;;;;;;5011391;28;20057;-64
2022/04/15 06:00:56;;;;;;;11.80;6.10;;;7.40;99.90;;;;;;5011562;28;20072;-65
2022/04/15 06:03:22;;;;;;;15.57;7.40;;;7.50;99.90;;;;;;5011316;28;20026;-64
2022/04/15 06:05:49;;;;;;;13.45;7.05;;;7.40;99.90;;;;;;5009364;28;20023;-64
2022/04/15 06:08:15;;;;;;;15.50;7.72;;;7.50;99.90;;;;;;5008019;28;20029;-64
2022/04/15 06:10:41;;;;;;;15.07;7.43;;;7.50;99.90;;;;;;5009928;28;20053;-64
2022/04/15 06:13:13;;;;;;;15.05;7.28;;;7.60;99.90;;;;;;5009846;28;20121;-64
2022/04/15 06:15:51;;;;;;;13.18;6.82;;;7.70;99.90;;;;;;5010563;28;20075;-65
2022/04/15 06:18:18;;;;;;;15.10;7.40;;;7.80;99.90;;;;;;5007997;28;20026;-64
2022/04/15 06:20:44;;;;;;;12.55;6.68;;;8.00;99.90;;;;;;5007893;28;20067;-64
2022/04/15 06:23:10;;;;;;;11.32;6.32;;;8.10;99.90;;;;;;5008908;28;20054;-64
2022/04/15 06:25:35;;;;;;;11.25;5.88;;;8.20;99.90;;;;;;5008505;28;20401;-64
2022/04/15 06:28:01;;;;;;;12.80;6.60;;;8.30;99.90;;;;;;5007855;28;20070;-64
2022/04/15 06:30:27;;;;;;;16.50;6.25;;;8.40;99.90;;;;;;5009848;28;20038;-64
2022/04/15 06:32:53;;;;;;;12.70;6.55;;;8.50;99.90;;;;;;5011117;28;20389;-64
2022/04/15 06:35:19;;;;;;;12.15;6.53;;;8.60;99.90;;;;;;5013441;28;20488;-64
2022/04/15 06:37:44;;;;;;;12.88;6.65;;;8.70;99.90;;;;;;5010751;28;20034;-64
2022/04/15 06:40:11;;;;;;;10.20;5.72;;;8.80;99.90;;;;;;5010538;28;20038;-64
2022/04/15 06:42:37;;;;;;;10.50;6.78;;;8.90;99.90;;;;;;5010769;28;20108;-64
2022/04/15 06:45:04;;;;;;;10.60;6.38;;;9.00;99.90;;;;;;5010655;28;20121;-65
2022/04/15 06:47:29;;;;;;;9.57;6.68;;;9.10;99.90;;;;;;5010535;28;20053;-65
2022/04/15 06:49:55;;;;;;;12.88;6.85;;;9.20;99.90;;;;;;5010578;28;20381;-65
2022/04/15 06:52:22;;;;;;;12.25;7.65;;;9.30;99.90;;;;;;5020575;28;20423;-65
2022/04/15 06:54:48;;;;;;;10.50;7.03;;;9.50;99.90;;;;;;5030242;28;20084;-65
2022/04/15 06:57:14;;;;;;;10.80;7.07;;;9.80;99.90;;;;;;5030282;28;20025;-65
2022/04/15 06:59:39;;;;;;;13.38;7.45;;;10.00;99.90;;;;;;5030178;28;20037;-65
2022/04/15 07:02:05;;;;;;;12.23;8.13;;;10.40;99.90;;;;;;5019127;28;20022;-65
2022/04/15 07:04:32;;;;;;;14.85;7.88;;;10.70;99.90;;;;;;5026382;28;20034;-64
2022/04/15 07:06:58;;;;;;;13.35;7.05;;;11.10;99.90;;;;;;5027063;28;20032;-65
2022/04/15 07:09:24;;;;;;;12.57;6.70;;;11.70;99.90;;;;;;5029790;28;20357;-65
2022/04/15 07:11:50;;;;;;;11.18;6.40;;;12.70;99.90;;;;;;5030014;28;20017;-65
2022/04/15 07:14:16;;;;;;;9.63;5.88;;;13.40;99.90;;;;;;5030180;28;20079;-65
2022/04/15 07:16:42;;;;;;;8.93;5.78;;;14.00;99.90;;;;;;5030223;28;20139;-65
2022/04/15 07:19:09;;;;;;;11.23;6.32;;;14.50;99.90;;;;;;5029745;28;20112;-65
2022/04/15 07:21:35;;;;;;;9.57;6.82;;;14.90;99.90;;;;;;5029783;28;20125;-66
2022/04/15 07:24:02;;;;;;;9.45;6.65;;;15.40;99.80;;;;;;5027186;28;20058;-64
2022/04/15 07:26:28;;;;;;;9.18;6.93;;;15.80;97.00;;;;;;5026812;28;20397;-66
2022/04/15 07:28:54;;;;;;;13.20;7.43;;;16.30;94.20;;;;;;5028181;28;20036;-66
2022/04/15 07:31:20;;;;;;;10.80;7.20;;;16.70;93.50;;;;;;5030082;28;20022;-65
2022/04/15 07:33:48;;;;;;;11.15;7.07;;;17.20;90.50;;;;;;5029887;28;20056;-65
2022/04/15 07:38:58;;;;;;;10.35;6.93;;;18.00;87.80;;;;;;5029639;28;20391;-66
2022/04/15 07:41:24;;;;;;;8.73;6.30;;;18.50;87.00;;;;;;5029663;28;20503;-66
2022/04/15 07:43:49;;;;;;;13.27;6.88;;;18.60;83.70;;;;;;5029359;28;20029;-65
2022/04/15 07:46:15;;;;;;;10.25;6.72;;;18.60;82.00;;;;;;5019085;28;20034;-65
2022/04/15 07:48:41;;;;;;;11.50;6.85;;;18.60;83.90;;;;;;5009752;28;20522;-65
2022/04/15 07:51:07;;;;;;;11.75;7.45;;;19.00;83.90;;;;;;5010122;28;20025;-65
2022/04/15 07:53:33;;;;;;;10.27;6.45;;;19.10;82.60;;;;;;5010000;28;20018;-64
2022/04/15 07:55:58;;;;;;;12.18;7.95;;;19.20;80.70;;;;;;5009871;28;20428;-65
2022/04/15 07:58:24;;;;;;;12.77;7.82;;;19.50;78.30;;;;;;5009397;28;20086;-65
2022/04/15 08:00:49;;;;;;;14.07;8.40;;;19.90;79.20;;;;;;5009671;28;20045;-65
2022/04/15 08:03:20;;;;;;;11.13;7.95;;;20.10;76.70;;;;;;5009680;28;20476;-65
2022/04/15 08:05:46;;;;;;;11.68;8.50;;;20.50;69.30;;;;;;5009995;28;20026;-65
2022/04/15 08:08:11;;;;;;;11.80;7.95;;;20.60;68.30;;;;;;5009527;28;20066;-65
2022/04/15 08:10:37;;;;;;;11.95;6.90;;;21.10;66.30;;;;;;5009784;28;20068;-65
2022/04/15 08:13:03;;;;;;;11.30;7.93;;;21.60;62.90;;;;;;5010839;28;20026;-66
2022/04/15 08:15:29;;;;;;;10.07;6.70;;;21.80;63.30;;;;;;5013497;28;20384;-66
2022/04/15 08:17:54;;;;;;;9.40;6.90;;;22.20;60.80;;;;;;5013522;28;20037;-65
2022/04/15 08:20:20;;;;;;;9.15;6.20;;;22.90;55.00;;;;;;5013159;28;20104;-65
2022/04/15 08:22:46;;;;;;;10.07;6.63;;;23.00;55.00;;;;;;5013103;28;20034;-65
2022/04/15 08:25:11;;;;;;;9.27;5.75;;;23.90;53.30;;;;;;5013399;28;20109;-67
2022/04/15 08:27:37;;;;;;;8.88;6.10;;;24.70;48.70;;;;;;5013267;28;20109;-66
2022/04/15 08:30:03;;;;;;;8.60;6.13;;;24.90;45.30;;;;;;5013175;28;20037;-67
2022/04/15 08:32:33;;;;;;;8.43;5.70;;;25.30;40.50;;;;;;5015747;28;20030;-67
2022/04/15 08:35:06;;;;;;;9.48;5.88;;;26.40;40.80;;;;;;5013051;28;20101;-66
2022/04/15 08:37:33;;;;;;;8.43;5.57;;;26.90;33.40;;;;;;5013148;28;20017;-68
2022/04/15 08:39:59;;;;;;;6.72;4.35;;;27.00;31.50;;;;;;5012866;28;20116;-65
2022/04/15 08:42:26;;;;;;;7.53;5.03;;;27.00;29.10;;;;;;5013158;28;20169;-67
2022/04/15 08:44:54;;;;;;;11.18;5.72;;;27.20;30.00;;;;;;5011610;28;20538;-67
2022/04/15 08:47:20;;;;;;;7.82;5.00;;;27.00;26.70;;;;;;5012729;28;20377;-66
2022/04/15 08:49:47;;;;;;;7.85;4.70;;;27.00;29.60;;;;;;5013795;28;20034;-66
2022/04/15 08:52:17;;;;;;;7.45;5.30;;;27.70;28.40;;;;;;5021061;28;20526;-67
2022/04/15 08:54:44;;;;;;;5.82;4.30;;;28.20;27.50;;;;;;5032264;28;20092;-67
2022/04/15 08:57:10;;;;;;;5.22;4.30;;;28.50;26.90;;;;;;5022135;28;20053;-67
2022/04/15 08:59:36;;;;;;;7.55;4.68;;;29.00;25.70;;;;;;5014801;28;20119;-66
2022/04/15 09:02:02;;;;;;;7.20;4.88;;;29.40;24.70;;;;;;5012766;28;20025;-65
2022/04/15 09:04:28;;;;;;;9.68;4.90;;;28.50;23.30;;;;;;5012648;28;20118;-68
2022/04/15 09:06:59;;;;;;;6.88;4.60;;;27.80;25.10;;;;;;5012419;28;20100;-65
2022/04/15 09:09:32;;;;;;;9.10;4.72;;;28.50;23.70;;;;;;5012378;28;20026;-66
2022/04/15 09:11:59;;;;;;;8.32;5.40;;;29.60;23.70;;;;;;5012298;28;20030;-66
2022/04/15 09:14:26;;;;;;;6.65;4.90;;;29.90;21.80;;;;;;5012416;28;20080;-66
2022/04/15 09:16:52;;;;;;;9.43;4.93;;;28.70;21.90;;;;;;5012439;28;20476;-65
2022/04/15 09:19:19;;;;;;;7.63;4.55;;;29.20;22.20;;;;;;5012287;28;20084;-66
2022/04/15 09:21:56;;;;;;;7.22;4.43;;;29.70;20.70;;;;;;5017721;28;20064;-66
2022/04/15 09:24:34;;;;;;;6.70;3.90;;;31.00;19.20;;;;;;5031340;28;20055;-66
2022/04/15 09:27:04;;;;;;;5.40;3.53;;;31.80;17.90;;;;;;5032136;28;20530;-65
2022/04/15 09:29:34;;;;;;;4.40;3.15;;;32.40;17.30;;;;;;5031884;28;20029;-65
2022/04/15 09:32:16;;;;;;;5.43;3.28;;;32.90;17.60;;;;;;5032123;28;20035;-66
2022/04/15 09:35:00;;;;;;;3.97;3.08;;;32.80;16.40;;;;;;5031872;28;20099;-66
2022/04/15 09:37:29;;;;;;;5.15;3.38;;;31.30;15.30;;;;;;5028350;28;20029;-66
2022/04/15 09:40:12;;;;;;;4.23;2.80;;;31.50;15.60;;;;;;5026371;28;20124;-66
2022/04/15 09:42:45;;;;;;;4.55;2.88;;;32.70;14.90;;;;;;5029135;28;20041;-66
2022/04/15 09:45:18;;;;;;;3.80;2.40;;;35.00;13.60;;;;;;5028222;28;20029;-67
2022/04/15 09:47:54;;;;;;;3.53;2.70;;;34.20;11.90;;;;;;5029796;28;20022;-65
2022/04/15 09:50:34;;;;;;;5.00;3.05;;;34.60;13.00;;;;;;5029926;28;20025;-66
2022/04/15 09:53:20;;;;;;;4.55;3.00;;;35.20;13.30;;;;;;5028405;28;20041;-66
2022/04/15 09:55:50;;;;;;;5.38;2.70;;;35.60;11.40;;;;;;5028414;28;20022;-65
2022/04/15 09:58:31;;;;;;;3.88;3.35;;;37.50;11.30;;;;;;5028303;28;20037;-67
2022/04/15 10:01:02;;;;;;;3.33;1.95;;;37.20;10.50;;;;;;5028205;28;20116;-66
2022/04/15 10:03:28;;;;;;;4.75;2.97;;;37.30;10.10;;;;;;5028546;28;20064;-64
2022/04/15 10:05:58;;;;;;;3.17;2.58;;;35.10;9.90;;;;;;5028345;28;20057;-65
2022/04/15 10:08:27;;;;;;;5.40;2.35;;;33.40;12.00;;;;;;5029669;28;20092;-65
2022/04/15 10:10:55;;;;;;;3.63;2.60;;;35.50;12.00;;;;;;5028058;28;20026;-66
2022/04/15 10:13:26;;;;;;;5.35;2.72;;;35.30;11.50;;;;;;5027910;28;20543;-65
2022/04/15 10:15:53;;;;;;;3.50;2.75;;;37.20;11.30;;;;;;5027596;28;20399;-65
2022/04/15 10:18:21;;;;;;;6.45;3.10;;;37.40;10.10;;;;;;5027866;28;20104;-65
2022/04/15 10:20:47;;;;;;;4.00;3.10;;;37.00;10.30;;;;;;5027861;28;20502;-65
2022/04/15 10:23:15;;;;;;;5.68;3.42;;;37.60;10.20;;;;;;5026082;28;20136;-66
2022/04/15 10:25:46;;;;;;;6.70;4.28;;;37.60;10.60;;;;;;5027866;28;20041;-65
2022/04/15 10:28:15;;;;;;;7.32;4.10;;;37.80;9.50;;;;;;5027625;28;20108;-66
2022/04/15 10:31:05;;;;;;;5.50;4.22;;;38.20;9.50;;;;;;5027496;28;20036;-66
2022/04/15 10:33:33;;;;;;;5.18;3.92;;;37.60;10.40;;;;;;5027610;28;20137;-65
2022/04/15 10:36:00;;;;;;;7.05;4.10;;;38.60;9.70;;;;;;5026760;28;20036;-66
2022/04/15 10:38:26;;;;;;;6.45;4.10;;;38.30;9.80;;;;;;5027478;28;20391;-67
2022/04/15 10:40:51;;;;;;;6.13;4.47;;;38.80;9.50;;;;;;5024246;28;20117;-67
2022/04/15 10:43:29;;;;;;;8.15;4.70;;;37.90;9.60;;;;;;5027203;28;20037;-67
2022/04/15 10:46:15;;;;;;;5.97;4.20;;;38.10;9.90;;;;;;5027681;28;20083;-67
2022/04/15 10:48:41;;;;;;;7.75;3.70;;;37.60;9.70;;;;;;5027187;28;20041;-68
2022/04/15 10:51:31;;;;;;;6.45;3.70;;;37.20;9.20;;;;;;5027085;28;20029;-65
2022/04/15 10:54:29;;;;;;;7.53;4.82;;;37.90;9.40;;;;;;5007385;28;20045;-66
2022/04/15 10:56:59;;;;;;;4.43;3.95;;;35.10;9.60;;;;;;5007794;28;20025;-65
2022/04/15 11:02:22;;;;;;;5.18;4.00;;;35.50;11.50;;;;;;5007515;28;20512;-65
2022/04/15 11:04:49;;;;;;;5.55;3.80;;;35.50;10.60;;;;;;5007836;28;20076;-68
2022/04/15 11:07:39;;;;;;;4.25;2.65;;;35.70;10.60;;;;;;5007671;28;20030;-67
2022/04/15 11:10:16;;;;;;;5.05;3.45;;;35.80;11.60;;;;;;5007573;28;20076;-66
2022/04/15 11:12:43;;;;;;;3.65;2.70;;;35.90;10.50;;;;;;5007157;28;20159;-66
2022/04/15 11:15:09;;;;;;;7.55;3.38;;;36.20;9.70;;;;;;5007320;28;20053;-66
2022/04/15 11:17:46;;;;;;;5.18;2.80;;;35.50;10.30;;;;;;5007303;28;20427;-64
2022/04/15 11:20:12;;;;;;;6.35;3.42;;;35.70;10.60;;;;;;5007158;28;20088;-67
2022/04/15 11:22:43;;;;;;;5.68;3.22;;;34.40;10.00;;;;;;5006179;28;20392;-65
2022/04/15 11:25:12;;;;;;;6.68;3.03;;;34.10;11.70;;;;;;5006718;28;20448;-66
2022/04/15 11:27:40;;;;;;;6.60;4.53;;;34.30;12.20;;;;;;5006701;28;20034;-65
2022/04/15 11:30:16;;;;;;;5.80;3.65;;;33.70;11.40;;;;;;5006837;28;20056;-64
2022/04/15 11:32:51;;;;;;;5.90;3.88;;;33.60;13.10;;;;;;5006850;28;20068;-65
2022/04/15 11:35:35;;;;;;;8.13;4.80;;;35.20;12.10;;;;;;5006698;28;20032;-66
2022/04/15 11:38:14;;;;;;;10.07;5.20;;;35.90;12.10;;;;;;5006629;28;20107;-65
2022/04/15 11:40:45;;;;;;;6.73;4.73;;;36.20;11.70;;;;;;5006260;28;20504;-65
2022/04/15 11:43:11;;;;;;;8.10;5.38;;;36.80;10.40;;;;;;5006162;28;20325;-65
2022/04/15 11:45:42;;;;;;;9.77;5.82;;;36.10;10.40;;;;;;5008718;28;20037;-65
2022/04/15 11:48:25;;;;;;;7.57;5.80;;;37.20;11.20;;;;;;5009334;28;20041;-66
2022/04/15 11:50:53;;;;;;;8.45;6.05;;;36.70;10.70;;;;;;5010481;28;20033;-69
2022/04/15 11:53:19;;;;;;;9.13;6.18;;;34.10;11.70;;;;;;5010472;28;20033;-65
2022/04/15 11:55:56;;;;;;;11.07;4.90;;;32.90;13.30;;;;;;5008980;28;20053;-65
2022/04/15 11:58:23;;;;;;;7.82;5.22;;;33.80;14.80;;;;;;5010506;28;20469;-65
2022/04/15 12:00:53;;;;;;;9.30;5.30;;;35.90;13.10;;;;;;5010944;28;20038;-65
2022/04/15 12:03:19;;;;;;;7.20;4.90;;;35.10;11.20;;;;;;5010489;28;20762;-64
2022/04/15 12:05:45;;;;;;;9.18;5.50;;;33.80;14.00;;;;;;5010372;28;20042;-64
2022/04/15 12:08:11;;;;;;;6.05;4.07;;;33.30;13.10;;;;;;5010481;28;20022;-65
2022/04/15 12:10:40;;;;;;;8.43;4.60;;;33.30;12.70;;;;;;5010913;28;20033;-64
2022/04/15 12:13:07;;;;;;;5.95;4.13;;;34.20;12.90;;;;;;5010415;28;20034;-63
2022/04/15 12:15:33;;;;;;;5.53;3.72;;;35.30;11.90;;;;;;5010566;28;20036;-65
2022/04/15 12:18:00;;;;;;;6.45;3.60;;;35.10;11.70;;;;;;5009447;28;20026;-65
2022/04/15 12:20:27;;;;;;;5.85;3.88;;;36.30;10.50;;;;;;5010264;28;20045;-65
2022/04/15 12:22:52;;;;;;;7.22;4.65;;;34.50;11.30;;;;;;5010004;28;20050;-64
2022/04/15 12:25:19;;;;;;;4.78;3.65;;;36.40;11.10;;;;;;5010273;28;20378;-65
2022/04/15 12:27:46;;;;;;;6.32;3.90;;;35.60;10.10;;;;;;5010388;28;20025;-65
2022/04/15 12:30:14;;;;;;;6.22;3.60;;;34.50;10.70;;;;;;5010562;28;20105;-66
2022/04/15 12:32:40;;;;;;;5.72;4.90;;;35.30;10.00;;;;;;5009996;28;20072;-65
2022/04/15 12:35:12;;;;;;;6.22;4.38;;;35.90;11.10;;;;;;5009862;28;20018;-69
2022/04/15 12:37:50;;;;;;;7.60;4.50;;;35.40;11.00;;;;;;5009672;28;20080;-65
2022/04/15 12:40:17;;;;;;;6.03;4.43;;;35.60;10.40;;;;;;5008616;28;20389;-65
2022/04/15 12:42:44;;;;;;;10.63;4.50;;;36.50;11.00;;;;;;5009627;28;20022;-64
2022/04/15 12:45:19;;;;;;;5.03;3.92;;;37.10;10.90;;;;;;5009850;28;20042;-64
2022/04/15 12:48:00;;;;;;;6.47;3.95;;;37.60;10.20;;;;;;5009971;28;20096;-64
2022/04/15 12:50:31;;;;;;;7.03;3.65;;;36.70;10.10;;;;;;5012336;28;20120;-64
2022/04/15 12:52:57;;;;;;;6.38;3.92;;;36.40;10.10;;;;;;5024322;28;20025;-64